Terminal Aerodrome Forecast
Issued by NWS

Home | Current Version | Previous Version | Text Only | Print | Product List | Glossary On
Versions: 1 2 3 4 5 6 7 8 9 10 11 12 13 14 15 16 17
344
FTUS41 KBTV 201126
TAFMPV
TAF
KMPV 201126Z 2012/2112 VRB03KT P6SM BKN030
      TEMPO 2012/2014 3SM BR
     FM201400 VRB03KT P6SM SCT040
     FM201800 25004KT P6SM BKN100
     FM210600 00000KT 5SM BR SCT010
      TEMPO 2108/2112 1SM BR BKN010=

USA.gov is the U.S. government's official web portal to all federal, state and local government web resources and services.